Time;durP1;ratioP1;P1;durP2;ratioP2;P2;SDS_P1;SDS_P2;PMS_P1;PMS_P2;Temp;Humidity;BMP_temperature;BMP_pressure;BME280_temperature;BME280_humidity;BME280_pressure;Samples;Min_cycle;Max_cycle;Signal;HPM_P1;HPM_P2
2023/10/26 00:00:25;;;;;;;8.70;1.88;;;12.90;99.90;;;;;;6198040;23;20490;-65
2023/10/26 00:02:51;;;;;;;2.75;1.90;;;12.90;99.90;;;;;;6197521;23;20011;-65
2023/10/26 00:05:17;;;;;;;4.72;1.60;;;12.80;99.90;;;;;;6198910;23;20009;-64
2023/10/26 00:07:43;;;;;;;3.42;1.80;;;12.80;99.90;;;;;;6196087;23;20028;-64
2023/10/26 00:10:09;;;;;;;5.32;1.88;;;12.80;99.90;;;;;;6196201;23;20036;-64
2023/10/26 00:12:34;;;;;;;2.67;1.45;;;12.80;99.90;;;;;;6200049;23;20092;-65
2023/10/26 00:15:00;;;;;;;2.35;1.40;;;12.80;99.90;;;;;;6198920;23;20004;-65
2023/10/26 00:17:26;;;;;;;3.13;1.40;;;12.80;99.90;;;;;;6199381;23;19996;-65
2023/10/26 00:19:52;;;;;;;2.97;1.30;;;12.70;99.90;;;;;;6172667;23;20324;-65
2023/10/26 00:22:19;;;;;;;2.55;1.52;;;12.60;99.90;;;;;;6197932;23;20004;-65
2023/10/26 00:24:44;;;;;;;3.03;1.27;;;12.60;99.90;;;;;;6198380;23;20119;-65
2023/10/26 00:27:10;;;;;;;1.70;1.15;;;12.60;99.90;;;;;;6199109;23;20024;-65
2023/10/26 00:29:36;;;;;;;1.98;1.25;;;12.50;99.90;;;;;;6198872;23;20727;-65
2023/10/26 00:32:03;;;;;;;1.23;1.13;;;12.50;99.90;;;;;;6173776;23;20008;-65
2023/10/26 00:34:29;;;;;;;5.40;1.35;;;12.40;99.90;;;;;;6195422;23;20004;-65
2023/10/26 00:36:55;;;;;;;2.78;1.73;;;12.30;99.90;;;;;;6197402;23;20269;-64
2023/10/26 00:39:20;;;;;;;2.85;1.35;;;12.30;99.90;;;;;;6170538;23;20139;-65
2023/10/26 00:41:50;;;;;;;2.38;1.40;;;12.20;99.90;;;;;;6197523;23;20000;-64
2023/10/26 00:44:15;;;;;;;1.63;1.52;;;12.30;99.90;;;;;;6199819;23;20004;-65
2023/10/26 00:46:41;;;;;;;3.67;1.48;;;12.20;99.90;;;;;;6197160;23;20055;-64
2023/10/26 00:49:07;;;;;;;2.35;1.40;;;12.20;99.90;;;;;;6198899;23;20458;-64
2023/10/26 00:51:34;;;;;;;3.67;1.73;;;12.10;99.90;;;;;;6195749;23;20012;-64
2023/10/26 00:54:00;;;;;;;2.08;1.75;;;12.10;99.90;;;;;;6196204;23;20652;-64
2023/10/26 00:56:27;;;;;;;3.05;1.83;;;12.10;99.90;;;;;;6200541;23;20004;-66
2023/10/26 00:58:55;;;;;;;3.08;2.03;;;12.20;99.90;;;;;;6200477;23;20072;-67
2023/10/26 01:01:21;;;;;;;3.55;1.55;;;12.20;99.90;;;;;;6198684;23;20186;-67
2023/10/26 01:03:47;;;;;;;2.13;1.50;;;12.20;99.90;;;;;;6196338;23;20004;-66
2023/10/26 01:06:13;;;;;;;2.15;1.50;;;12.20;99.90;;;;;;6199258;23;20013;-67
2023/10/26 01:08:39;;;;;;;2.05;1.45;;;12.10;99.90;;;;;;6199623;23;20001;-67
2023/10/26 01:11:05;;;;;;;2.28;1.45;;;12.10;99.90;;;;;;6199021;23;20012;-67
2023/10/26 01:13:33;;;;;;;3.60;1.98;;;12.00;99.90;;;;;;6198684;23;20571;-64
2023/10/26 01:15:59;;;;;;;3.00;1.73;;;11.90;99.90;;;;;;6198601;23;20001;-64
2023/10/26 01:18:25;;;;;;;1.85;1.05;;;11.90;99.90;;;;;;6199291;23;20111;-64
2023/10/26 01:20:50;;;;;;;0.88;0.88;;;11.80;99.90;;;;;;6198349;23;20095;-64
2023/10/26 01:23:16;;;;;;;1.73;0.77;;;11.70;99.90;;;;;;6195991;23;20004;-64
2023/10/26 01:25:46;;;;;;;1.73;0.85;;;11.70;99.90;;;;;;6198578;23;20426;-64
2023/10/26 01:28:11;;;;;;;0.80;0.80;;;11.60;99.90;;;;;;6197765;23;20032;-64
2023/10/26 01:30:41;;;;;;;3.80;1.25;;;11.60;99.90;;;;;;6197612;23;20592;-64
2023/10/26 01:33:07;;;;;;;3.83;1.50;;;11.60;99.90;;;;;;6199635;23;20339;-64
2023/10/26 01:35:41;;;;;;;1.50;1.30;;;11.60;99.90;;;;;;6202002;23;20015;-64
2023/10/26 01:38:07;;;;;;;3.97;1.98;;;11.60;99.90;;;;;;6201364;23;20076;-64
2023/10/26 01:40:33;;;;;;;1.80;1.27;;;11.50;99.90;;;;;;6201252;23;20128;-64
2023/10/26 01:42:58;;;;;;;1.80;1.08;;;11.50;99.90;;;;;;6200413;23;20007;-64
2023/10/26 01:45:24;;;;;;;2.72;1.25;;;11.40;99.90;;;;;;6199512;23;20012;-66
2023/10/26 01:47:50;;;;;;;0.82;0.80;;;11.40;99.90;;;;;;6200033;23;20043;-65
2023/10/26 01:50:15;;;;;;;1.70;1.25;;;11.40;99.90;;;;;;6201602;23;20000;-65
2023/10/26 01:52:43;;;;;;;1.30;1.15;;;11.40;99.90;;;;;;6199988;23;20008;-65
2023/10/26 01:55:09;;;;;;;3.35;1.10;;;11.40;99.90;;;;;;6198801;23;20071;-65
2023/10/26 01:57:35;;;;;;;1.70;1.17;;;11.30;99.90;;;;;;6200070;23;20082;-65
2023/10/26 02:00:01;;;;;;;1.13;1.02;;;11.30;99.90;;;;;;6201582;23;20024;-65
2023/10/26 02:02:26;;;;;;;1.45;1.20;;;11.30;99.90;;;;;;6199838;23;20011;-65
2023/10/26 02:04:54;;;;;;;1.40;1.30;;;11.20;99.90;;;;;;6200316;23;20032;-65
2023/10/26 02:07:20;;;;;;;1.83;1.38;;;11.30;99.90;;;;;;6195912;23;20016;-65
2023/10/26 02:09:46;;;;;;;2.38;1.13;;;11.20;99.90;;;;;;6200413;23;20016;-65
2023/10/26 02:12:11;;;;;;;1.55;1.45;;;11.30;99.90;;;;;;6199509;23;20008;-65
2023/10/26 02:14:37;;;;;;;2.90;2.10;;;11.20;99.90;;;;;;6198928;23;20001;-65
2023/10/26 02:17:04;;;;;;;3.65;2.25;;;11.30;99.90;;;;;;6198352;23;20012;-65
2023/10/26 02:19:29;;;;;;;2.45;1.98;;;11.30;99.90;;;;;;6172502;23;20012;-65
2023/10/26 02:21:55;;;;;;;2.42;2.22;;;11.40;99.90;;;;;;6200308;23;20103;-65
2023/10/26 02:24:21;;;;;;;4.63;2.38;;;11.40;99.90;;;;;;6201169;23;20672;-65
2023/10/26 02:26:46;;;;;;;2.65;2.45;;;11.40;99.90;;;;;;6200950;23;20018;-68
2023/10/26 02:29:12;;;;;;;3.72;2.50;;;11.50;99.90;;;;;;6201090;23;20008;-68
2023/10/26 02:31:37;;;;;;;2.80;2.58;;;11.60;99.90;;;;;;6194406;23;20004;-68
2023/10/26 02:34:03;;;;;;;4.22;3.22;;;11.50;99.90;;;;;;6199830;23;20119;-68
2023/10/26 02:36:29;;;;;;;4.30;3.35;;;11.60;99.90;;;;;;6200618;23;20009;-68
2023/10/26 02:38:55;;;;;;;4.38;3.25;;;11.70;99.90;;;;;;6198988;23;20284;-68
2023/10/26 02:41:20;;;;;;;3.15;2.85;;;11.70;99.90;;;;;;6201360;23;20013;-68
2023/10/26 02:43:46;;;;;;;3.22;2.83;;;11.70;99.90;;;;;;6200457;23;20406;-65
2023/10/26 02:46:12;;;;;;;4.55;3.22;;;11.70;99.90;;;;;;6199501;23;20012;-65
2023/10/26 02:48:37;;;;;;;3.10;2.72;;;11.70;99.90;;;;;;6198564;23;20054;-65
2023/10/26 02:51:03;;;;;;;3.47;3.08;;;11.70;99.90;;;;;;6174099;23;20219;-65
2023/10/26 02:53:29;;;;;;;3.58;3.22;;;11.70;99.90;;;;;;6198825;23;20143;-66
2023/10/26 02:55:55;;;;;;;8.20;6.90;;;11.80;99.90;;;;;;6200748;23;20059;-65
2023/10/26 02:58:20;;;;;;;10.30;7.93;;;11.80;99.90;;;;;;6199999;23;20080;-65
2023/10/26 03:00:46;;;;;;;9.63;5.78;;;11.80;99.90;;;;;;6197697;23;20369;-65
2023/10/26 03:03:12;;;;;;;5.25;4.10;;;11.80;99.90;;;;;;6173484;23;20008;-65
2023/10/26 03:05:38;;;;;;;4.75;4.03;;;11.80;99.90;;;;;;6201137;23;20118;-65
2023/10/26 03:08:05;;;;;;;6.45;3.95;;;11.80;99.90;;;;;;6198814;23;19997;-65
2023/10/26 03:10:30;;;;;;;4.35;3.85;;;11.80;99.90;;;;;;6200947;23;20323;-65
2023/10/26 03:12:57;;;;;;;5.03;4.53;;;11.80;99.90;;;;;;6199084;23;20012;-65
2023/10/26 03:15:23;;;;;;;5.43;4.60;;;11.80;99.90;;;;;;6201540;23;20031;-65
2023/10/26 03:17:49;;;;;;;8.27;6.47;;;11.80;99.90;;;;;;6197156;23;20058;-65
2023/10/26 03:20:14;;;;;;;11.18;9.38;;;11.80;99.90;;;;;;6200991;23;20024;-65
2023/10/26 03:22:40;;;;;;;4.95;4.45;;;11.80;99.90;;;;;;6199091;23;20076;-65
2023/10/26 03:25:07;;;;;;;3.67;3.33;;;11.70;99.90;;;;;;6198428;23;20035;-65
2023/10/26 03:27:33;;;;;;;4.20;3.33;;;11.80;99.90;;;;;;6197700;23;20055;-64
2023/10/26 03:29:58;;;;;;;5.13;3.08;;;11.80;99.90;;;;;;6200053;23;20009;-65
2023/10/26 03:32:24;;;;;;;5.28;3.80;;;11.80;99.90;;;;;;6199463;23;20054;-65
2023/10/26 03:34:50;;;;;;;3.85;3.55;;;11.70;99.90;;;;;;6200681;23;20008;-65
2023/10/26 03:37:16;;;;;;;3.72;3.42;;;11.70;99.90;;;;;;6198748;23;20001;-64
2023/10/26 03:39:42;;;;;;;3.95;3.53;;;11.70;99.90;;;;;;6198976;23;20055;-65
2023/10/26 03:42:07;;;;;;;3.88;3.15;;;11.60;99.90;;;;;;6198204;23;20086;-65
2023/10/26 03:44:33;;;;;;;3.75;3.00;;;11.60;99.90;;;;;;6198999;23;20015;-63
2023/10/26 03:46:58;;;;;;;4.78;2.80;;;11.50;99.90;;;;;;6198320;23;20007;-63
2023/10/26 03:49:24;;;;;;;3.08;2.78;;;11.50;99.90;;;;;;6199159;23;20308;-63
2023/10/26 03:51:50;;;;;;;3.80;3.20;;;11.50;99.90;;;;;;6173968;23;20036;-63
2023/10/26 03:54:16;;;;;;;4.47;2.45;;;11.50;99.90;;;;;;6199351;23;20059;-63
2023/10/26 03:56:41;;;;;;;3.40;2.40;;;11.50;99.90;;;;;;6199868;23;20001;-67
2023/10/26 03:59:07;;;;;;;4.32;2.30;;;11.30;99.90;;;;;;6195042;23;20070;-67
2023/10/26 04:01:34;;;;;;;3.03;2.30;;;11.20;99.90;;;;;;6199070;23;20698;-67
2023/10/26 04:04:01;;;;;;;6.25;2.92;;;11.10;99.90;;;;;;6196279;23;20004;-67
2023/10/26 04:06:27;;;;;;;5.03;3.50;;;11.00;99.90;;;;;;6198808;23;20001;-67
2023/10/26 04:08:56;;;;;;;4.45;3.70;;;10.90;99.90;;;;;;6199002;23;20023;-68
2023/10/26 04:11:22;;;;;;;2.70;2.38;;;11.00;99.90;;;;;;6200768;23;20012;-67
2023/10/26 04:13:47;;;;;;;3.58;2.63;;;11.00;99.90;;;;;;6199960;23;20081;-67
2023/10/26 04:16:13;;;;;;;4.05;3.13;;;11.00;99.90;;;;;;6199600;23;20013;-68
2023/10/26 04:18:39;;;;;;;3.70;3.20;;;11.00;99.90;;;;;;6196386;23;20013;-68
2023/10/26 04:21:05;;;;;;;5.28;3.30;;;11.10;99.90;;;;;;6199604;23;20024;-68
2023/10/26 04:23:31;;;;;;;6.43;3.13;;;11.10;99.90;;;;;;6199675;23;20019;-68
2023/10/26 04:25:56;;;;;;;3.20;2.90;;;11.10;99.90;;;;;;6200211;23;20369;-66
2023/10/26 04:28:23;;;;;;;2.63;2.42;;;11.10;99.90;;;;;;6198460;23;20001;-68
2023/10/26 04:30:49;;;;;;;3.45;3.08;;;11.20;99.90;;;;;;6197461;23;20051;-67
2023/10/26 04:33:16;;;;;;;7.70;4.35;;;11.20;99.90;;;;;;6192956;23;20028;-67
2023/10/26 04:35:43;;;;;;;5.00;3.30;;;11.20;99.90;;;;;;6198481;23;20550;-67
2023/10/26 04:38:08;;;;;;;7.28;4.43;;;11.10;99.90;;;;;;6199363;23;20019;-67
2023/10/26 04:40:35;;;;;;;6.18;4.60;;;11.10;99.90;;;;;;6198465;23;20353;-68
2023/10/26 04:43:02;;;;;;;6.18;4.13;;;11.00;99.90;;;;;;6198738;23;20001;-68
2023/10/26 04:45:28;;;;;;;5.65;4.18;;;11.10;99.90;;;;;;6200273;23;20143;-67
2023/10/26 04:47:53;;;;;;;5.07;4.00;;;11.10;99.90;;;;;;6198786;23;20395;-67
2023/10/26 04:50:19;;;;;;;16.13;5.07;;;11.10;99.90;;;;;;6199264;23;20074;-67
2023/10/26 04:52:44;;;;;;;6.38;3.92;;;11.10;99.90;;;;;;6196147;23;20005;-67
2023/10/26 04:55:10;;;;;;;4.15;3.58;;;11.20;99.90;;;;;;6198693;23;20075;-62
2023/10/26 04:57:36;;;;;;;4.45;3.28;;;11.20;99.90;;;;;;6172776;23;20472;-63
2023/10/26 05:00:02;;;;;;;5.25;3.72;;;11.20;99.90;;;;;;6201255;23;20055;-63
2023/10/26 05:02:28;;;;;;;4.40;3.30;;;11.20;99.90;;;;;;6199943;23;20752;-64
2023/10/26 05:04:53;;;;;;;4.55;3.05;;;11.30;99.90;;;;;;6198402;23;20661;-64
2023/10/26 05:07:19;;;;;;;3.78;2.50;;;11.30;99.90;;;;;;6198721;23;20027;-65
2023/10/26 05:09:44;;;;;;;3.67;3.08;;;11.40;99.90;;;;;;6195169;23;20020;-64
2023/10/26 05:12:10;;;;;;;3.55;2.70;;;11.30;99.90;;;;;;6196108;23;20005;-64
2023/10/26 05:14:36;;;;;;;2.63;2.42;;;11.40;99.90;;;;;;6196033;23;20012;-65
2023/10/26 05:17:01;;;;;;;4.50;3.03;;;11.50;99.90;;;;;;6198587;23;20603;-65
2023/10/26 05:19:27;;;;;;;7.18;3.40;;;11.50;99.90;;;;;;6197580;23;20727;-64
2023/10/26 05:21:53;;;;;;;3.35;2.85;;;11.50;99.90;;;;;;6195951;23;20016;-65
2023/10/26 05:24:18;;;;;;;3.30;2.75;;;11.40;99.90;;;;;;6197586;23;20000;-66
2023/10/26 05:26:44;;;;;;;3.28;2.97;;;11.50;99.90;;;;;;6196409;23;20016;-64
2023/10/26 05:29:09;;;;;;;4.05;3.13;;;11.50;99.90;;;;;;6195773;23;20005;-67
2023/10/26 05:31:35;;;;;;;4.68;3.33;;;11.50;99.90;;;;;;6194163;23;20346;-64
2023/10/26 05:34:01;;;;;;;5.72;3.92;;;11.60;99.90;;;;;;6195119;23;20000;-64
2023/10/26 05:36:26;;;;;;;8.27;4.28;;;11.60;99.90;;;;;;6198126;23;20312;-62
2023/10/26 05:38:52;;;;;;;4.10;3.70;;;11.70;99.90;;;;;;6196467;23;20015;-65
2023/10/26 05:41:17;;;;;;;6.60;4.05;;;11.70;99.90;;;;;;6198452;23;20038;-65
2023/10/26 05:43:43;;;;;;;4.95;3.08;;;11.80;99.90;;;;;;6197723;23;20092;-65
2023/10/26 05:46:09;;;;;;;8.48;4.03;;;11.90;99.90;;;;;;6198798;23;20042;-65
2023/10/26 05:48:34;;;;;;;7.63;3.38;;;11.80;99.90;;;;;;6201428;23;20028;-64
2023/10/26 05:51:00;;;;;;;6.20;3.83;;;11.80;99.90;;;;;;6174539;23;20005;-65
2023/10/26 05:53:26;;;;;;;6.95;3.75;;;11.80;99.90;;;;;;6200363;23;20004;-64
2023/10/26 05:55:58;;;;;;;4.40;3.65;;;11.80;99.90;;;;;;6200799;23;20017;-65
2023/10/26 05:58:24;;;;;;;5.10;4.07;;;11.90;99.90;;;;;;6201873;23;20016;-65
2023/10/26 06:00:50;;;;;;;5.93;4.55;;;11.90;99.90;;;;;;6201036;23;20023;-63
2023/10/26 06:03:16;;;;;;;6.15;4.30;;;11.90;99.90;;;;;;6196409;23;20231;-63
2023/10/26 06:05:42;;;;;;;8.32;4.13;;;12.00;99.90;;;;;;6201840;23;20004;-65
2023/10/26 06:08:07;;;;;;;10.60;4.97;;;12.00;99.90;;;;;;6200774;23;20019;-68
2023/10/26 06:10:33;;;;;;;12.32;6.32;;;12.00;99.90;;;;;;6200553;23;20135;-67
2023/10/26 06:12:59;;;;;;;15.57;6.72;;;12.10;99.90;;;;;;6201856;23;20083;-68
2023/10/26 06:15:24;;;;;;;8.20;5.95;;;12.20;99.90;;;;;;6202093;23;20516;-67
2023/10/26 06:17:50;;;;;;;6.75;5.57;;;12.20;99.90;;;;;;6201580;23;20385;-67
2023/10/26 06:20:16;;;;;;;14.50;5.63;;;12.20;99.90;;;;;;6199503;23;20016;-67
2023/10/26 06:22:43;;;;;;;6.45;4.97;;;12.30;99.90;;;;;;6173500;23;20074;-67
2023/10/26 06:25:08;;;;;;;4.95;3.67;;;12.30;99.90;;;;;;6201574;23;20004;-67
2023/10/26 06:27:34;;;;;;;4.22;3.67;;;12.30;99.90;;;;;;6202506;23;20004;-67
2023/10/26 06:30:00;;;;;;;4.53;3.88;;;12.30;99.90;;;;;;6191779;23;20011;-67
2023/10/26 06:32:25;;;;;;;5.68;3.65;;;12.40;99.90;;;;;;6197003;23;20533;-68
2023/10/26 06:34:52;;;;;;;4.13;3.72;;;12.40;99.90;;;;;;6198365;23;20024;-67
2023/10/26 06:37:17;;;;;;;5.70;4.15;;;12.40;99.90;;;;;;6201963;23;20087;-67
2023/10/26 06:39:43;;;;;;;4.60;3.95;;;12.40;99.90;;;;;;6201756;23;20044;-68
2023/10/26 06:42:08;;;;;;;4.85;4.35;;;12.40;99.90;;;;;;6201470;23;20385;-65
2023/10/26 06:44:34;;;;;;;5.05;4.57;;;12.40;99.90;;;;;;6197005;23;20027;-64
2023/10/26 06:47:00;;;;;;;8.30;5.30;;;12.40;99.90;;;;;;6200318;23;20004;-65
2023/10/26 06:49:25;;;;;;;5.97;5.10;;;12.50;99.90;;;;;;6199764;23;20047;-65
2023/10/26 06:51:51;;;;;;;6.57;5.38;;;12.50;99.90;;;;;;6199217;23;20496;-64
2023/10/26 06:54:17;;;;;;;6.32;5.25;;;12.70;99.90;;;;;;6199575;23;20008;-63
2023/10/26 06:56:43;;;;;;;14.68;10.07;;;12.80;99.90;;;;;;6200417;23;20063;-63
2023/10/26 06:59:09;;;;;;;11.20;7.88;;;13.00;99.90;;;;;;6200000;23;20315;-63
2023/10/26 07:01:35;;;;;;;7.50;6.18;;;13.10;99.90;;;;;;6201952;23;20079;-63
2023/10/26 07:04:00;;;;;;;7.10;5.60;;;13.20;99.90;;;;;;6195847;23;20009;-63
2023/10/26 07:06:26;;;;;;;6.28;5.25;;;13.20;99.90;;;;;;6200443;23;20012;-63
2023/10/26 07:08:52;;;;;;;6.00;5.38;;;13.10;99.90;;;;;;6200178;23;20595;-63
2023/10/26 07:11:17;;;;;;;24.55;13.73;;;13.10;99.90;;;;;;6199981;23;20012;-61
2023/10/26 07:13:45;;;;;;;153.90;103.88;;;13.10;99.90;;;;;;6199597;23;20143;-63
2023/10/26 07:16:11;;;;;;;388.33;291.77;;;13.20;99.90;;;;;;6196546;23;20009;-63
2023/10/26 07:18:37;;;;;;;132.70;119.15;;;13.20;99.90;;;;;;6194977;23;20394;-63
2023/10/26 07:21:06;;;;;;;15.75;14.07;;;13.30;99.90;;;;;;6173764;23;20081;-67
2023/10/26 07:23:33;;;;;;;8.82;7.00;;;13.30;99.90;;;;;;6200250;23;20028;-67
2023/10/26 07:25:59;;;;;;;87.00;44.53;;;13.40;99.90;;;;;;6197456;23;20008;-67
2023/10/26 07:28:24;;;;;;;23.98;15.05;;;13.40;99.90;;;;;;6198043;23;19997;-66
2023/10/26 07:30:53;;;;;;;7.63;5.90;;;13.50;99.90;;;;;;6200616;23;20063;-67
2023/10/26 07:33:19;;;;;;;30.85;27.80;;;13.60;99.90;;;;;;6199838;23;20000;-67
2023/10/26 07:35:52;;;;;;;8.18;7.35;;;13.70;99.90;;;;;;6199602;23;20009;-66
2023/10/26 07:38:18;;;;;;;9.63;5.88;;;13.70;99.90;;;;;;6198638;23;20004;-67
2023/10/26 07:40:52;;;;;;;3.90;3.00;;;13.70;99.90;;;;;;6198839;23;20438;-64
2023/10/26 07:43:18;;;;;;;5.85;3.05;;;13.70;99.90;;;;;;6200908;23;20040;-64
2023/10/26 07:45:44;;;;;;;5.43;2.67;;;13.70;99.90;;;;;;6196355;23;20047;-63
2023/10/26 07:48:10;;;;;;;4.72;2.15;;;13.70;99.90;;;;;;6198116;23;20008;-64
2023/10/26 07:50:36;;;;;;;4.90;3.03;;;13.70;99.90;;;;;;6198409;23;20070;-63
2023/10/26 07:53:02;;;;;;;5.82;2.60;;;13.70;99.90;;;;;;6195098;23;20366;-63
2023/10/26 07:55:27;;;;;;;3.92;3.45;;;13.60;99.90;;;;;;6195905;23;20402;-64
2023/10/26 07:57:54;;;;;;;5.18;3.58;;;13.60;99.90;;;;;;6199226;23;20001;-64
2023/10/26 08:00:19;;;;;;;5.75;4.53;;;13.70;99.90;;;;;;6198493;23;20404;-63
2023/10/26 08:02:45;;;;;;;10.23;5.40;;;13.70;99.90;;;;;;6199179;23;20047;-63
2023/10/26 08:05:12;;;;;;;6.03;4.47;;;13.70;99.90;;;;;;6199151;23;20084;-64
2023/10/26 08:07:38;;;;;;;7.53;6.78;;;13.80;99.90;;;;;;6197164;23;20005;-64
2023/10/26 08:10:04;;;;;;;10.65;6.57;;;13.80;99.90;;;;;;6196796;23;20024;-64
2023/10/26 08:12:31;;;;;;;10.60;8.15;;;13.90;99.90;;;;;;6170463;23;20082;-64
2023/10/26 08:14:57;;;;;;;7.25;4.07;;;13.90;99.90;;;;;;6199858;23;20004;-67
2023/10/26 08:17:25;;;;;;;5.78;4.45;;;14.00;99.90;;;;;;6197747;23;20008;-64
2023/10/26 08:19:54;;;;;;;7.32;5.35;;;14.00;99.90;;;;;;6170765;23;20016;-64
2023/10/26 08:22:21;;;;;;;8.15;4.07;;;14.10;99.90;;;;;;6198613;23;20011;-64
2023/10/26 08:24:48;;;;;;;8.00;5.65;;;14.10;99.90;;;;;;6198088;23;20081;-64
2023/10/26 08:27:14;;;;;;;5.55;3.70;;;14.20;99.90;;;;;;6199334;23;20012;-64
2023/10/26 08:29:39;;;;;;;5.72;4.93;;;14.30;99.90;;;;;;6197745;23;20005;-64
2023/10/26 08:32:05;;;;;;;10.35;9.20;;;14.30;99.90;;;;;;6198838;23;20000;-64
2023/10/26 08:34:31;;;;;;;4.78;2.25;;;14.40;99.90;;;;;;6199007;23;20190;-67
2023/10/26 08:36:59;;;;;;;7.47;3.17;;;14.40;99.90;;;;;;6201522;23;20199;-68
2023/10/26 08:39:25;;;;;;;2.88;1.75;;;14.50;99.90;;;;;;6202017;23;20176;-68
2023/10/26 08:41:50;;;;;;;3.28;2.10;;;14.60;99.90;;;;;;6200866;23;20600;-66
2023/10/26 08:44:17;;;;;;;3.50;1.80;;;14.70;99.90;;;;;;6199837;23;20474;-67
2023/10/26 08:46:44;;;;;;;4.47;2.05;;;14.80;99.90;;;;;;6199298;23;20011;-67
2023/10/26 08:49:12;;;;;;;7.15;5.82;;;14.90;99.90;;;;;;6202675;23;20009;-67
2023/10/26 08:51:38;;;;;;;3.10;1.98;;;14.90;99.90;;;;;;6202379;23;20397;-67
2023/10/26 08:54:05;;;;;;;2.53;2.10;;;15.00;99.90;;;;;;6201868;23;20001;-63
2023/10/26 08:56:31;;;;;;;4.80;1.80;;;15.10;99.90;;;;;;6201547;23;20020;-64
2023/10/26 08:58:57;;;;;;;2.10;1.33;;;15.10;99.90;;;;;;6200413;23;20004;-64
2023/10/26 09:01:24;;;;;;;2.17;1.23;;;15.20;99.90;;;;;;6202113;23;20027;-63
2023/10/26 09:03:49;;;;;;;4.07;1.70;;;15.20;99.90;;;;;;6201315;23;20009;-64
2023/10/26 09:06:15;;;;;;;2.63;1.30;;;15.30;99.90;;;;;;6202756;23;20008;-64
2023/10/26 09:08:41;;;;;;;2.17;1.38;;;15.30;99.90;;;;;;6200824;23;19996;-65
2023/10/26 09:11:21;;;;;;;2.17;1.15;;;15.40;99.90;;;;;;6197319;23;20023;-65
2023/10/26 09:13:47;;;;;;;4.35;1.27;;;15.50;99.90;;;;;;6195959;23;20015;-68
2023/10/26 09:16:13;;;;;;;4.57;1.15;;;15.60;99.90;;;;;;6199995;23;20001;-68
2023/10/26 09:18:38;;;;;;;1.67;1.08;;;15.70;99.90;;;;;;6197792;23;20005;-69
2023/10/26 09:21:08;;;;;;;5.00;2.10;;;15.80;99.90;;;;;;6196583;23;20012;-68
2023/10/26 09:23:37;;;;;;;5.10;2.60;;;15.90;99.90;;;;;;6200141;23;20418;-68
2023/10/26 09:26:04;;;;;;;2.30;1.75;;;16.00;99.90;;;;;;6201075;23;20016;-68
2023/10/26 09:28:54;;;;;;;4.57;1.60;;;16.10;99.90;;;;;;6201726;23;20084;-68
2023/10/26 09:31:20;;;;;;;3.70;1.77;;;16.20;99.90;;;;;;6199675;23;20082;-65
2023/10/26 09:33:46;;;;;;;3.85;1.42;;;16.30;99.90;;;;;;6168086;23;20506;-65
2023/10/26 09:36:14;;;;;;;4.63;1.42;;;16.50;99.90;;;;;;6200654;23;20127;-65
2023/10/26 09:38:40;;;;;;;3.63;1.50;;;16.70;99.90;;;;;;6198465;23;20005;-65
2023/10/26 09:41:10;;;;;;;1.73;1.00;;;16.90;99.90;;;;;;6200211;23;20016;-65
2023/10/26 09:43:37;;;;;;;3.08;1.13;;;17.10;99.90;;;;;;6194748;23;20005;-65
2023/10/26 09:46:03;;;;;;;5.63;1.10;;;17.10;99.90;;;;;;6200207;23;20690;-65
2023/10/26 09:48:28;;;;;;;2.10;0.85;;;17.20;99.90;;;;;;6199201;23;20127;-68
2023/10/26 09:51:00;;;;;;;3.88;0.90;;;17.40;99.90;;;;;;6201004;23;20008;-68
2023/10/26 09:53:34;;;;;;;1.83;1.00;;;17.60;99.90;;;;;;6200098;23;20005;-65
2023/10/26 09:56:02;;;;;;;2.15;0.90;;;17.70;99.90;;;;;;6175252;23;20009;-66
2023/10/26 09:58:32;;;;;;;3.75;1.25;;;17.80;99.90;;;;;;6201694;23;20003;-66
2023/10/26 10:00:57;;;;;;;2.95;0.82;;;17.90;99.90;;;;;;6201391;23;20017;-66
2023/10/26 10:03:23;;;;;;;3.20;1.40;;;18.00;99.90;;;;;;6200603;23;20004;-67
2023/10/26 10:05:49;;;;;;;3.80;0.85;;;18.10;99.90;;;;;;6197407;23;20009;-66
2023/10/26 10:08:53;;;;;;;3.75;1.10;;;18.10;99.90;;;;;;6202335;23;20355;-66
2023/10/26 10:11:19;;;;;;;2.88;1.27;;;18.20;99.90;;;;;;6199405;23;20016;-68
2023/10/26 10:13:45;;;;;;;2.13;1.20;;;18.20;99.90;;;;;;6197740;23;20000;-67
2023/10/26 10:16:45;;;;;;;33.30;25.55;;;18.20;99.90;;;;;;6198070;23;20095;-68
2023/10/26 10:19:18;;;;;;;12.48;9.60;;;18.40;99.90;;;;;;6133989;23;20004;-68
2023/10/26 10:21:44;;;;;;;4.97;3.72;;;18.40;99.90;;;;;;6199176;23;20024;-68
2023/10/26 10:24:09;;;;;;;4.13;2.35;;;18.60;99.90;;;;;;6171333;23;20008;-65
2023/10/26 10:27:10;;;;;;;4.53;1.20;;;18.60;99.90;;;;;;6199534;23;20331;-64
2023/10/26 10:29:36;;;;;;;4.57;1.05;;;18.70;99.90;;;;;;6198503;23;20032;-64
2023/10/26 10:32:01;;;;;;;4.25;1.10;;;18.70;99.90;;;;;;6193299;23;20800;-64
2023/10/26 10:34:41;;;;;;;2.95;1.08;;;18.70;99.90;;;;;;6198872;23;20005;-64
2023/10/26 10:37:10;;;;;;;1.75;1.00;;;18.80;99.90;;;;;;6199577;23;20054;-64
2023/10/26 10:39:36;;;;;;;4.28;1.20;;;18.80;99.90;;;;;;6201852;23;20175;-64
2023/10/26 10:42:04;;;;;;;3.92;0.93;;;18.70;99.90;;;;;;6201666;23;20013;-64
2023/10/26 10:44:34;;;;;;;5.07;2.53;;;18.60;99.90;;;;;;6174568;23;20265;-68
2023/10/26 10:47:00;;;;;;;1.75;1.20;;;18.40;99.90;;;;;;6173628;23;20086;-67
2023/10/26 10:49:25;;;;;;;3.00;1.05;;;18.30;99.90;;;;;;6201916;23;20020;-67
2023/10/26 10:51:52;;;;;;;1.67;0.98;;;18.20;99.90;;;;;;6200495;23;20102;-68
2023/10/26 10:54:22;;;;;;;2.28;1.33;;;18.20;99.90;;;;;;6200185;23;20000;-68
2023/10/26 10:56:49;;;;;;;3.47;0.90;;;18.20;99.90;;;;;;6198678;23;20008;-67
2023/10/26 10:59:25;;;;;;;3.83;1.50;;;18.30;99.90;;;;;;6202358;23;20054;-68
2023/10/26 11:02:10;;;;;;;1.83;1.02;;;18.30;99.90;;;;;;6201556;23;20196;-64
2023/10/26 11:04:49;;;;;;;1.77;0.90;;;18.30;99.90;;;;;;6199970;23;20066;-64
2023/10/26 11:07:16;;;;;;;1.50;0.80;;;18.30;99.90;;;;;;6172823;23;20012;-64
2023/10/26 11:09:42;;;;;;;3.60;1.00;;;18.30;99.90;;;;;;6200202;23;20013;-64
2023/10/26 11:12:09;;;;;;;4.32;1.40;;;18.40;99.90;;;;;;6200929;23;20015;-65
2023/10/26 11:14:35;;;;;;;1.35;0.80;;;18.60;99.90;;;;;;6198421;23;20000;-64
2023/10/26 11:17:01;;;;;;;1.17;0.73;;;18.70;99.90;;;;;;6202018;23;20063;-65
2023/10/26 11:19:26;;;;;;;3.30;0.95;;;18.90;99.90;;;;;;6174058;23;20066;-64
2023/10/26 11:21:56;;;;;;;1.35;0.70;;;19.10;99.90;;;;;;6201041;23;20071;-67
2023/10/26 11:24:31;;;;;;;0.50;0.40;;;19.10;99.90;;;;;;6201746;23;20020;-67
2023/10/26 11:27:11;;;;;;;1.10;0.65;;;19.20;99.90;;;;;;6196328;23;20000;-68
2023/10/26 11:29:37;;;;;;;0.70;0.65;;;19.30;99.90;;;;;;6201518;23;20000;-67
2023/10/26 11:32:03;;;;;;;0.75;0.50;;;19.50;99.90;;;;;;6198375;23;20562;-67
2023/10/26 11:34:29;;;;;;;1.20;0.45;;;19.70;99.90;;;;;;6198036;23;20000;-68
2023/10/26 11:36:57;;;;;;;0.65;0.20;;;19.70;99.90;;;;;;6201232;23;20367;-68
2023/10/26 11:39:23;;;;;;;0.73;0.20;;;19.60;99.90;;;;;;6198963;23;20090;-68
2023/10/26 11:41:56;;;;;;;0.17;0.17;;;19.60;99.90;;;;;;6201263;23;20600;-67
2023/10/26 11:44:27;;;;;;;1.70;0.40;;;19.40;99.90;;;;;;6198745;23;20015;-67
2023/10/26 11:46:57;;;;;;;0.20;0.20;;;19.20;99.90;;;;;;6201163;23;20173;-67
2023/10/26 11:49:36;;;;;;;0.63;0.10;;;19.10;99.90;;;;;;6197902;23;20112;-67
2023/10/26 11:52:02;;;;;;;0.50;0.30;;;18.90;99.90;;;;;;6202013;23;20015;-68
2023/10/26 11:54:28;;;;;;;0.47;0.20;;;18.80;99.90;;;;;;6200854;23;20456;-67
2023/10/26 11:56:54;;;;;;;0.68;0.20;;;18.80;99.90;;;;;;6173018;23;20052;-66
2023/10/26 11:59:19;;;;;;;0.45;0.40;;;18.80;99.90;;;;;;6200298;23;20004;-66
2023/10/26 12:01:45;;;;;;;0.45;0.20;;;18.90;99.90;;;;;;6199836;23;20074;-66
2023/10/26 12:04:12;;;;;;;2.22;0.70;;;18.90;99.90;;;;;;6200576;23;20096;-66
2023/10/26 12:06:37;;;;;;;1.25;0.35;;;18.90;99.90;;;;;;6200084;23;20008;-66
2023/10/26 12:09:04;;;;;;;0.95;0.25;;;19.00;99.90;;;;;;6177823;23;20849;-67
2023/10/26 12:11:30;;;;;;;0.40;0.30;;;19.00;99.90;;;;;;6202530;23;20494;-66
2023/10/26 12:13:56;;;;;;;0.50;0.20;;;19.10;99.90;;;;;;6198033;23;20084;-65
2023/10/26 12:16:21;;;;;;;0.90;0.60;;;19.10;99.90;;;;;;6202461;23;20463;-65
2023/10/26 12:18:47;;;;;;;0.45;0.10;;;19.20;99.90;;;;;;6201981;23;20030;-65
2023/10/26 12:21:13;;;;;;;0.57;0.22;;;19.20;99.90;;;;;;6197676;23;20042;-65
2023/10/26 12:23:38;;;;;;;1.00;0.10;;;19.30;99.90;;;;;;6199901;23;20016;-65
2023/10/26 12:26:04;;;;;;;0.75;0.20;;;19.30;99.90;;;;;;6202636;23;20438;-65
2023/10/26 12:28:29;;;;;;;0.20;0.20;;;19.20;99.90;;;;;;6203741;23;20019;-65
2023/10/26 12:30:55;;;;;;;0.75;0.30;;;19.30;99.90;;;;;;6202169;23;20005;-65
2023/10/26 12:33:21;;;;;;;0.77;0.40;;;19.30;99.90;;;;;;6201184;23;20024;-65
2023/10/26 12:35:46;;;;;;;0.55;0.20;;;19.40;99.90;;;;;;6200540;23;20011;-65
2023/10/26 12:38:12;;;;;;;0.52;0.40;;;19.60;99.90;;;;;;6201090;23;20035;-66
2023/10/26 12:40:38;;;;;;;1.13;0.43;;;19.50;99.90;;;;;;6201190;23;20016;-65
2023/10/26 12:43:04;;;;;;;0.95;0.30;;;19.60;99.90;;;;;;6203424;23;20432;-65